Time;durP1;ratioP1;P1;durP2;ratioP2;P2;SDS_P1;SDS_P2;PMS_P1;PMS_P2;Temp;Humidity;BMP_temperature;BMP_pressure;BME280_temperature;BME280_humidity;BME280_pressure;Samples;Min_cycle;Max_cycle;Signal;HPM_P1;HPM_P2
2022/01/16 00:04:50;;;;;;;24.73;11.63;;;;;;;1.55;75.09;100944.16;5056170;28;20060;-80
2022/01/16 00:07:18;;;;;;;16.40;12.15;;;;;;;1.56;75.06;100951.31;5050893;28;20045;-80
2022/01/16 00:09:45;;;;;;;13.45;10.30;;;;;;;1.53;75.04;100956.44;5044455;28;20053;-81
2022/01/16 00:12:18;;;;;;;17.25;11.30;;;;;;;1.51;75.14;100956.72;5055996;28;20045;-81
2022/01/16 00:14:46;;;;;;;15.30;10.57;;;;;;;1.50;74.73;100944.06;5056116;28;20057;-81
2022/01/16 00:17:15;;;;;;;18.08;11.07;;;;;;;1.50;74.65;100948.72;5056024;28;20061;-81
2022/01/16 00:19:42;;;;;;;15.32;10.90;;;;;;;1.47;74.61;100944.56;5056340;28;20053;-81
2022/01/16 00:22:14;;;;;;;15.60;11.02;;;;;;;1.46;74.02;100945.63;5056298;28;20060;-80
2022/01/16 00:24:43;;;;;;;15.00;10.95;;;;;;;1.44;73.98;100944.19;5055171;28;20041;-79
2022/01/16 00:27:15;;;;;;;14.30;10.38;;;;;;;1.46;74.46;100953.03;5055853;28;20064;-81
2022/01/16 00:29:44;;;;;;;15.77;11.65;;;;;;;1.44;74.07;100950.50;5055966;28;20084;-81
2022/01/16 00:32:11;;;;;;;14.10;10.48;;;;;;;1.43;74.20;100932.38;5056158;28;20060;-80
2022/01/16 00:34:40;;;;;;;13.90;10.48;;;;;;;1.44;74.35;100936.78;5055650;28;20060;-81
2022/01/16 00:37:07;;;;;;;13.85;10.73;;;;;;;1.29;74.48;100937.28;5056141;28;20064;-81
2022/01/16 00:39:35;;;;;;;13.00;10.05;;;;;;;1.36;74.23;100934.41;5055422;28;20056;-81
2022/01/16 00:42:03;;;;;;;16.02;10.43;;;;;;;1.38;74.61;100940.50;5035642;28;20415;-81
2022/01/16 00:44:30;;;;;;;13.57;9.32;;;;;;;1.37;74.12;100936.91;5035743;28;20072;-81
2022/01/16 00:46:58;;;;;;;13.15;9.98;;;;;;;1.37;74.39;100919.63;5036082;28;20053;-79
2022/01/16 00:49:25;;;;;;;14.23;10.27;;;;;;;1.39;73.79;100934.78;5045044;28;20049;-81
2022/01/16 00:51:54;;;;;;;15.55;10.68;;;;;;;1.35;73.97;100924.53;5055308;28;20406;-81
2022/01/16 00:54:21;;;;;;;13.57;9.57;;;;;;;1.39;73.29;100915.56;5055343;28;20048;-79
2022/01/16 00:56:49;;;;;;;13.43;10.07;;;;;;;1.35;73.89;100924.53;5055304;28;20055;-80
2022/01/16 00:59:16;;;;;;;12.48;9.73;;;;;;;1.33;73.33;100922.00;5056448;28;20049;-81
2022/01/16 01:01:44;;;;;;;14.68;11.23;;;;;;;1.27;73.74;100920.22;5055999;28;20060;-80
2022/01/16 01:04:11;;;;;;;13.13;10.30;;;;;;;1.28;74.02;100889.00;5055022;28;20056;-81
2022/01/16 01:06:41;;;;;;;14.30;10.50;;;;;;;1.33;73.93;100901.97;5054753;28;20056;-80
2022/01/16 01:09:10;;;;;;;14.20;10.88;;;;;;;1.25;73.13;100910.59;5054523;28;20064;-78
2022/01/16 01:11:38;;;;;;;12.88;10.05;;;;;;;1.27;73.08;100913.91;5054594;28;20053;-80
2022/01/16 01:14:16;;;;;;;14.65;10.60;;;;;;;1.21;73.80;100908.31;5054703;28;20052;-81
2022/01/16 01:16:52;;;;;;;12.98;9.75;;;;;;;1.28;73.06;100916.44;5053627;28;20061;-80
2022/01/16 01:19:24;;;;;;;13.45;10.10;;;;;;;1.28;73.46;100913.69;5055077;28;20064;-78
2022/01/16 01:21:51;;;;;;;12.98;9.52;;;;;;;1.16;73.51;100926.59;5054398;28;20061;-80
2022/01/16 01:24:20;;;;;;;11.60;9.23;;;;;;;1.14;73.45;100918.59;5054695;28;20053;-81
2022/01/16 01:26:54;;;;;;;12.80;9.43;;;;;;;1.16;73.41;100937.56;5054390;28;20049;-82
2022/01/16 01:29:21;;;;;;;10.95;8.60;;;;;;;1.20;74.02;100944.25;5055079;28;20053;-80
2022/01/16 01:31:52;;;;;;;11.10;8.27;;;;;;;1.26;73.77;100947.91;5055004;28;20057;-79
2022/01/16 01:34:23;;;;;;;12.25;9.50;;;;;;;1.23;73.16;100951.16;5054996;28;20068;-81
2022/01/16 01:36:50;;;;;;;17.25;9.90;;;;;;;1.15;73.88;100903.78;5054734;28;20072;-81
2022/01/16 01:39:21;;;;;;;14.93;9.98;;;;;;;1.08;73.77;100885.81;5054631;28;20049;-82
2022/01/16 01:42:02;;;;;;;12.52;9.20;;;;;;;1.13;73.34;100878.50;5034913;28;20490;-80
2022/01/16 01:52:53;;;;;;;11.45;8.48;;;;;;;1.25;73.75;100932.53;5054455;28;20060;-80
2022/01/16 01:55:23;;;;;;;10.70;8.25;;;;;;;1.33;73.86;100945.88;5054057;28;20060;-80
2022/01/16 01:57:51;;;;;;;12.00;8.65;;;;;;;1.41;74.14;100956.50;5058230;28;20057;-80
2022/01/16 02:00:20;;;;;;;11.95;8.82;;;;;;;1.49;75.00;100961.63;5058607;28;20060;-82
2022/01/16 02:03:04;;;;;;;14.50;9.82;;;;;;;1.57;74.57;100963.94;5060190;28;20057;-82
2022/01/16 02:05:33;;;;;;;12.82;8.82;;;;;;;1.69;75.27;100965.84;5058282;28;20063;-80
2022/01/16 02:08:00;;;;;;;11.95;8.73;;;;;;;1.85;75.40;100981.56;5058775;28;20056;-81
2022/01/16 02:10:31;;;;;;;12.07;8.48;;;;;;;1.96;75.94;100975.19;5058420;28;20049;-82
2022/01/16 02:13:02;;;;;;;12.00;8.63;;;;;;;2.13;76.22;100977.97;5060116;28;20052;-82
2022/01/16 02:27:52;;;;;;;11.07;8.15;;;;;;;2.23;76.27;100980.94;5060650;28;20455;-82
2022/01/16 02:32:45;;;;;;;12.73;9.18;;;;;;;2.94;76.15;101010.75;5059880;28;20085;-83
2022/01/16 02:35:13;;;;;;;12.43;8.63;;;;;;;2.93;76.33;101017.34;5061243;28;20053;-82
2022/01/16 02:37:40;;;;;;;12.02;8.57;;;;;;;3.07;75.95;101015.09;5059714;28;20045;-83
2022/01/16 02:40:18;;;;;;;12.10;8.38;;;;;;;3.11;76.51;101008.00;5060108;28;20044;-83
2022/01/16 02:42:50;;;;;;;13.80;9.00;;;;;;;2.99;76.84;101016.34;5059281;28;20057;-82
2022/01/16 02:45:28;;;;;;;13.65;9.52;;;;;;;3.07;76.87;101017.84;5060711;28;20053;-83
2022/01/16 02:47:59;;;;;;;11.90;8.43;;;;;;;3.15;76.68;101003.66;5060329;28;20059;-83
2022/01/16 02:50:29;;;;;;;12.20;8.10;;;;;;;3.34;76.16;100976.69;5060693;28;20497;-81
2022/01/16 02:52:59;;;;;;;12.15;9.30;;;;;;;3.32;76.65;100983.50;5060307;28;20057;-82
2022/01/16 02:55:28;;;;;;;12.75;8.43;;;;;;;3.50;76.07;100980.47;5060023;28;20049;-83
2022/01/16 02:57:56;;;;;;;11.38;7.97;;;;;;;3.54;75.86;100978.88;5059514;28;20056;-82
2022/01/16 03:00:24;;;;;;;12.18;8.23;;;;;;;3.57;75.37;100983.03;5059129;28;20045;-83
2022/01/16 03:02:52;;;;;;;12.25;7.68;;;;;;;3.53;75.17;100966.22;5059334;28;20053;-83
2022/01/16 03:05:20;;;;;;;12.20;8.10;;;;;;;3.57;75.20;100964.59;5044513;28;20378;-83
2022/01/16 03:07:47;;;;;;;13.32;8.77;;;;;;;3.51;75.67;100948.25;5059534;28;20060;-83
2022/01/16 03:10:59;;;;;;;12.65;8.15;;;;;;;3.62;74.82;100953.63;5060596;28;20060;-82
2022/01/16 03:13:31;;;;;;;12.65;8.90;;;;;;;3.57;74.98;100941.72;5060080;28;20053;-83
2022/01/16 03:15:59;;;;;;;15.57;9.82;;;;;;;3.37;75.92;100931.28;5059283;28;20053;-83
2022/01/16 03:23:56;;;;;;;15.05;9.90;;;;;;;3.34;76.20;100938.13;5061277;28;20063;-83
2022/01/16 03:26:23;;;;;;;14.93;9.65;;;;;;;3.32;76.30;100933.94;5059137;28;20075;-83
2022/01/16 03:28:51;;;;;;;18.77;10.93;;;;;;;3.31;76.54;100937.81;5058683;28;20068;-82
2022/01/16 03:31:19;;;;;;;18.50;10.65;;;;;;;3.31;76.54;100924.03;5058383;28;20057;-83
2022/01/16 03:33:46;;;;;;;17.77;11.88;;;;;;;3.32;76.21;100909.19;5059562;28;20053;-82
2022/01/16 03:36:13;;;;;;;17.17;11.15;;;;;;;3.33;76.35;100913.59;5058165;28;20059;-82
2022/01/16 03:38:41;;;;;;;19.10;12.48;;;;;;;3.29;76.83;100920.72;5058683;28;20076;-83
2022/01/16 03:41:09;;;;;;;19.00;11.80;;;;;;;3.28;76.37;100914.38;5059037;28;20049;-83
2022/01/16 03:43:36;;;;;;;19.50;12.40;;;;;;;3.13;76.88;100901.25;5060072;28;20608;-83
2022/01/16 03:46:05;;;;;;;21.58;13.90;;;;;;;3.20;76.93;100904.63;5058706;28;20474;-82
2022/01/16 03:48:32;;;;;;;20.27;12.50;;;;;;;3.18;76.97;100893.03;5058435;28;20052;-83
2022/01/16 03:51:02;;;;;;;23.17;13.55;;;;;;;3.23;77.00;100897.78;5059076;28;20053;-83
2022/01/16 03:53:29;;;;;;;21.77;13.30;;;;;;;3.20;77.21;100896.38;5058495;28;20061;-82
2022/01/16 03:55:57;;;;;;;19.98;12.75;;;;;;;3.22;76.97;100905.22;5057682;28;20056;-83
2022/01/16 03:58:24;;;;;;;23.83;13.45;;;;;;;3.18;77.36;100912.31;5058584;28;20064;-83
2022/01/16 04:00:52;;;;;;;24.42;14.07;;;;;;;3.14;77.06;100915.84;5057626;28;20057;-82
2022/01/16 04:03:20;;;;;;;24.95;13.95;;;;;;;3.17;76.91;100918.91;5057406;28;20060;-83
2022/01/16 04:05:48;;;;;;;23.48;13.20;;;;;;;3.20;77.42;100917.56;5057410;28;20049;-82
2022/01/16 04:08:15;;;;;;;21.65;13.00;;;;;;;3.23;77.42;100919.81;5058042;28;20049;-82
2022/01/16 04:10:43;;;;;;;21.23;13.35;;;;;;;3.33;77.65;100916.38;5058085;28;20504;-83
2022/01/16 04:13:11;;;;;;;21.25;13.20;;;;;;;3.32;77.43;100911.94;5057878;28;20060;-83
2022/01/16 04:15:39;;;;;;;26.20;14.85;;;;;;;3.19;77.62;100911.25;5057672;28;20056;-82
2022/01/16 04:18:07;;;;;;;21.55;12.90;;;;;;;3.34;77.03;100907.00;5056981;28;20074;-83
2022/01/16 04:20:36;;;;;;;22.38;13.80;;;;;;;3.43;77.42;100906.31;5057225;28;20053;-82
2022/01/16 04:23:06;;;;;;;20.77;12.63;;;;;;;3.49;76.65;100915.47;5057655;28;20060;-82
2022/01/16 04:25:34;;;;;;;20.60;12.50;;;;;;;3.59;75.84;100926.63;5056586;28;20057;-82
2022/01/16 04:28:01;;;;;;;24.75;13.30;;;;;;;3.46;76.64;100921.47;5057754;28;20053;-81
2022/01/16 04:30:28;;;;;;;24.42;13.75;;;;;;;3.53;76.44;100922.13;5057278;28;20447;-82
2022/01/16 04:32:58;;;;;;;22.60;13.00;;;;;;;3.54;76.29;100914.69;5058109;28;20053;-82
2022/01/16 04:35:26;;;;;;;22.25;13.93;;;;;;;3.50;76.70;100930.06;5058035;28;20053;-82
2022/01/16 04:37:55;;;;;;;26.08;15.30;;;;;;;3.36;77.05;100921.34;5058541;28;20469;-81
2022/01/16 04:40:23;;;;;;;24.27;14.60;;;;;;;3.47;76.85;100927.84;5057360;28;20417;-82
2022/01/16 04:45:38;;;;;;;21.90;12.60;;;;;;;3.53;76.64;100927.66;5059018;28;20386;-81
2022/01/16 04:48:09;;;;;;;20.48;12.98;;;;;;;3.49;76.50;100932.00;5057291;28;20053;-82
2022/01/16 04:50:37;;;;;;;24.73;14.38;;;;;;;3.41;76.57;100930.50;5056513;28;20496;-81
2022/01/16 04:53:06;;;;;;;24.15;14.40;;;;;;;3.37;76.25;100926.59;5056032;28;20402;-82
2022/01/16 04:55:33;;;;;;;22.50;13.18;;;;;;;3.41;76.95;100924.19;5056696;28;20053;-82
2022/01/16 04:58:01;;;;;;;26.17;14.35;;;;;;;3.46;76.40;100932.50;5057223;28;20056;-80
2022/01/16 05:00:28;;;;;;;25.65;15.10;;;;;;;3.43;76.86;100933.84;5058099;28;20053;-82
2022/01/16 05:02:56;;;;;;;24.50;14.18;;;;;;;3.53;76.25;100932.28;5057023;28;20048;-82
2022/01/16 05:05:23;;;;;;;22.80;14.05;;;;;;;3.48;75.83;100919.31;5057181;28;20072;-82
2022/01/16 05:07:53;;;;;;;24.85;15.00;;;;;;;3.36;76.75;100921.34;5057193;28;20056;-82
2022/01/16 05:10:22;;;;;;;23.35;14.40;;;;;;;3.49;76.43;100920.97;5056666;28;20053;-80
2022/01/16 05:12:51;;;;;;;22.55;13.40;;;;;;;3.62;75.95;100923.34;5055768;28;20529;-80
2022/01/16 05:18:08;;;;;;;24.23;14.32;;;;;;;3.66;75.66;100924.50;5060109;28;20060;-82
2022/01/16 05:20:35;;;;;;;27.17;15.82;;;;;;;3.71;75.79;100917.38;5057081;28;20071;-82
2022/01/16 05:23:03;;;;;;;25.38;15.57;;;;;;;3.85;75.29;100919.47;5057142;28;20051;-82
2022/01/16 05:25:32;;;;;;;29.92;17.00;;;;;;;3.83;75.25;100932.69;5057676;28;20049;-82
2022/01/16 05:27:59;;;;;;;26.40;16.38;;;;;;;4.00;75.07;100931.75;5057672;28;20053;-82
2022/01/16 05:30:27;;;;;;;28.67;15.80;;;;;;;4.05;74.38;100940.06;5059119;28;20037;-82
2022/01/16 05:32:54;;;;;;;29.60;16.45;;;;;;;4.17;73.98;100934.41;5061545;28;20132;-82
2022/01/16 05:35:22;;;;;;;28.05;17.10;;;;;;;4.08;74.54;100934.06;5061068;28;20060;-82
2022/01/16 05:37:49;;;;;;;29.77;18.08;;;;;;;4.01;74.57;100934.28;5059263;28;20490;-82
2022/01/16 05:40:16;;;;;;;29.45;17.65;;;;;;;4.02;74.76;100935.09;5060465;28;20076;-83
2022/01/16 05:42:46;;;;;;;34.88;20.95;;;;;;;4.11;74.41;100928.00;5060579;28;20052;-82
2022/01/16 05:45:14;;;;;;;30.65;19.95;;;;;;;4.24;74.34;100929.50;5060682;28;20052;-83
2022/01/16 05:47:41;;;;;;;33.95;21.27;;;;;;;4.05;75.22;100938.16;5061086;28;20052;-83
2022/01/16 05:50:09;;;;;;;31.08;20.02;;;;;;;4.27;74.09;100937.28;5061173;28;20049;-83
2022/01/16 05:52:37;;;;;;;31.45;19.67;;;;;;;4.42;73.71;100936.59;5061609;28;20421;-83
2022/01/16 05:55:05;;;;;;;36.58;21.95;;;;;;;4.46;73.44;100944.06;5061411;28;20053;-84
2022/01/16 05:57:33;;;;;;;30.20;19.02;;;;;;;4.54;73.16;100934.50;5060733;28;20057;-83
2022/01/16 06:00:07;;;;;;;38.00;21.58;;;;;;;4.47;73.64;100945.75;5060744;28;20405;-83
2022/01/16 06:02:34;;;;;;;32.38;19.50;;;;;;;4.58;73.50;100943.09;5060643;28;20482;-83
2022/01/16 06:05:02;;;;;;;34.75;21.08;;;;;;;4.65;73.36;100935.41;5061105;28;20049;-83
2022/01/16 06:07:30;;;;;;;35.00;21.65;;;;;;;4.65;73.51;100940.94;5061409;28;20052;-84
2022/01/16 06:09:57;;;;;;;36.55;21.20;;;;;;;4.63;73.03;100927.38;5061416;28;20049;-82
2022/01/16 06:12:25;;;;;;;34.70;21.02;;;;;;;4.48;73.71;100924.50;5060712;28;20049;-83
2022/01/16 06:14:52;;;;;;;39.47;22.85;;;;;;;4.66;72.93;100923.25;5060978;28;20486;-83
2022/01/16 06:17:21;;;;;;;36.03;21.58;;;;;;;4.79;72.72;100924.75;5061414;28;20517;-83
2022/01/16 06:19:48;;;;;;;37.72;22.85;;;;;;;4.78;72.35;100923.91;5060940;28;20049;-83
2022/01/16 06:22:15;;;;;;;41.40;23.25;;;;;;;4.68;72.93;100926.59;5060622;28;20056;-83
2022/01/16 06:24:43;;;;;;;42.22;24.45;;;;;;;4.56;73.06;100917.69;5060798;28;20057;-82
2022/01/16 06:27:10;;;;;;;37.13;23.85;;;;;;;4.77;72.84;100918.69;5059952;28;20057;-83
2022/01/16 06:29:39;;;;;;;42.15;24.17;;;;;;;4.68;73.04;100926.59;5060388;28;20060;-83
2022/01/16 06:32:07;;;;;;;37.50;22.58;;;;;;;4.70;72.98;100932.66;5060621;28;20060;-83
2022/01/16 06:34:36;;;;;;;44.55;25.02;;;;;;;4.75;72.39;100932.72;5062049;28;20059;-83
2022/01/16 06:37:03;;;;;;;40.95;25.52;;;;;;;4.72;73.13;100933.25;5060862;28;20490;-83
2022/01/16 06:39:31;;;;;;;42.22;25.17;;;;;;;4.67;73.26;100935.97;5060776;28;20059;-83
2022/01/16 06:42:00;;;;;;;43.85;24.77;;;;;;;4.63;73.58;100937.59;5059778;28;20056;-83
2022/01/16 06:44:28;;;;;;;45.15;26.40;;;;;;;4.55;74.07;100946.34;5060806;28;20090;-83
2022/01/16 06:46:55;;;;;;;46.35;27.80;;;;;;;4.74;72.90;100944.84;5061102;28;20049;-82
2022/01/16 06:49:22;;;;;;;44.45;27.88;;;;;;;4.77;73.53;100947.09;5061214;28;20057;-83
2022/01/16 06:51:53;;;;;;;45.88;25.10;;;;;;;4.88;72.74;100943.31;5061019;28;20055;-82
2022/01/16 06:54:21;;;;;;;44.42;27.65;;;;;;;4.90;72.36;100933.94;5062110;28;20060;-83
2022/01/16 06:56:48;;;;;;;49.53;28.75;;;;;;;4.79;72.60;100936.63;5060739;28;20052;-84
2022/01/16 06:59:15;;;;;;;45.17;25.52;;;;;;;4.96;72.62;100935.66;5060408;28;20478;-82
2022/01/16 07:01:43;;;;;;;53.28;29.20;;;;;;;4.84;72.57;100924.78;5060272;28;20049;-82
2022/01/16 07:04:10;;;;;;;48.45;28.52;;;;;;;4.81;72.67;100942.72;5060145;28;20053;-82
2022/01/16 07:06:37;;;;;;;47.45;27.77;;;;;;;4.80;72.81;100946.56;5059977;28;20048;-82
2022/01/16 07:09:06;;;;;;;47.22;28.88;;;;;;;4.87;73.34;100941.66;5059493;28;20397;-82
2022/01/16 07:11:34;;;;;;;41.83;27.27;;;;;;;4.86;73.08;100948.25;5059987;28;20057;-82
2022/01/16 07:14:01;;;;;;;52.05;29.65;;;;;;;4.62;73.57;100949.72;5059285;28;20053;-82
2022/01/16 07:16:31;;;;;;;51.40;29.45;;;;;;;4.77;73.25;100943.50;5059357;28;20049;-82
2022/01/16 07:18:58;;;;;;;52.50;29.73;;;;;;;4.81;73.06;100952.94;5058721;28;20059;-81
2022/01/16 07:21:26;;;;;;;48.40;28.73;;;;;;;4.99;72.53;100959.94;5059183;28;20517;-81
2022/01/16 07:23:55;;;;;;;52.05;29.70;;;;;;;4.91;72.65;100963.19;5059098;28;20394;-81
2022/01/16 07:26:24;;;;;;;51.05;29.08;;;;;;;4.92;72.54;100967.63;5058446;28;20049;-82
2022/01/16 07:28:54;;;;;;;52.90;28.73;;;;;;;4.83;72.45;100984.69;5057827;28;20052;-82
2022/01/16 07:31:21;;;;;;;;;;;;;;;4.77;72.45;100985.72;5058162;28;20041;-81
2022/01/16 07:33:51;;;;;;;52.05;29.20;;;;;;;4.88;72.42;100975.59;5057113;28;19928;-82
2022/01/16 07:36:18;;;;;;;50.78;29.98;;;;;;;4.74;72.92;100972.44;5056684;28;20057;-82
2022/01/16 07:38:46;;;;;;;52.20;29.70;;;;;;;4.71;73.09;100964.72;5058426;28;20053;-82
2022/01/16 07:41:13;;;;;;;51.95;28.85;;;;;;;4.78;73.05;100981.88;5059195;28;20053;-82
2022/01/16 07:43:42;;;;;;;55.28;30.38;;;;;;;4.84;72.65;100991.84;5058427;28;20053;-81
2022/01/16 07:46:10;;;;;;;58.20;33.08;;;;;;;4.76;72.89;100983.22;5058102;28;20056;-82
2022/01/16 07:48:37;;;;;;;53.08;30.90;;;;;;;4.68;73.49;100976.25;5057838;28;20060;-82
2022/01/16 07:51:05;;;;;;;54.72;31.25;;;;;;;4.82;72.93;100977.47;5057788;28;20497;-81
2022/01/16 07:53:35;;;;;;;55.30;31.17;;;;;;;4.85;72.86;100992.69;5058452;28;20057;-83
2022/01/16 07:56:02;;;;;;;52.03;30.40;;;;;;;4.91;72.49;100999.06;5057905;28;20057;-82
2022/01/16 07:58:30;;;;;;;49.03;29.38;;;;;;;4.73;73.23;101009.44;5051381;28;20050;-82
2022/01/16 08:01:01;;;;;;;52.25;29.75;;;;;;;4.63;73.10;101001.06;5045842;28;20053;-82
2022/01/16 08:03:29;;;;;;;53.53;32.40;;;;;;;4.73;72.98;101001.16;5056543;28;20048;-82
2022/01/16 08:05:56;;;;;;;58.20;32.42;;;;;;;4.78;72.69;100998.41;5048886;28;20414;-82
2022/01/16 08:08:24;;;;;;;55.40;32.10;;;;;;;4.84;72.46;100997.38;5038306;28;20045;-82
2022/01/16 08:10:51;;;;;;;51.40;30.95;;;;;;;4.86;72.81;101000.69;5038449;28;20061;-81
2022/01/16 08:13:19;;;;;;;55.38;33.90;;;;;;;4.86;72.83;100983.31;5052874;28;20049;-82
2022/01/16 08:15:49;;;;;;;54.13;32.13;;;;;;;4.97;72.35;100978.69;5057482;28;20052;-82
2022/01/16 08:18:19;;;;;;;51.58;31.30;;;;;;;5.01;72.34;100985.34;5057066;28;20414;-82
2022/01/16 08:20:47;;;;;;;50.22;31.40;;;;;;;5.09;71.93;100987.63;5040572;28;20053;-82
2022/01/16 08:23:15;;;;;;;54.15;31.38;;;;;;;5.13;71.71;100980.47;5057533;28;20071;-82
2022/01/16 08:25:42;;;;;;;51.30;31.63;;;;;;;5.09;71.67;100980.19;5058712;28;20048;-83
2022/01/16 08:28:10;;;;;;;53.15;31.83;;;;;;;5.12;71.74;100986.25;5056747;28;20049;-81
2022/01/16 08:30:37;;;;;;;55.00;33.42;;;;;;;4.92;72.74;100981.44;5056111;28;20056;-82
2022/01/16 08:33:05;;;;;;;52.35;31.27;;;;;;;5.11;72.13;100987.38;5056646;28;20049;-83
2022/01/16 08:35:33;;;;;;;54.70;31.38;;;;;;;5.12;71.77;100987.09;5055969;28;20052;-82
2022/01/16 08:38:01;;;;;;;53.92;32.00;;;;;;;5.24;71.13;101000.72;5056026;28;20059;-82
2022/01/16 08:40:29;;;;;;;59.55;34.25;;;;;;;5.02;71.87;101001.66;5055594;28;20060;-82
2022/01/16 08:42:56;;;;;;;51.90;30.77;;;;;;;5.09;71.99;101002.25;5052236;28;20053;-83
2022/01/16 08:45:23;;;;;;;55.28;32.83;;;;;;;5.27;71.90;101003.78;5055602;28;20052;-84
2022/01/16 08:47:51;;;;;;;58.00;33.55;;;;;;;5.13;72.25;100997.06;5054394;28;20056;-84
2022/01/16 08:50:18;;;;;;;56.35;31.92;;;;;;;5.32;71.62;101018.72;5055456;28;20446;-83
2022/01/16 08:52:48;;;;;;;57.28;34.03;;;;;;;5.01;72.74;101011.03;5056136;28;20057;-85
2022/01/16 08:55:16;;;;;;;59.22;34.20;;;;;;;4.98;73.00;101025.38;5057771;28;20328;-86
2022/01/16 08:57:45;;;;;;;49.72;32.20;;;;;;;4.89;73.35;101032.47;5050452;28;20056;-86
2022/01/16 09:00:14;;;;;;;51.20;31.07;;;;;;;5.13;72.86;101032.13;5055387;28;20513;-84
2022/01/16 09:02:44;;;;;;;59.63;36.95;;;;;;;4.76;74.03;101044.75;5055980;28;20471;-85
2022/01/16 09:05:12;;;;;;;52.95;32.90;;;;;;;4.98;73.56;101038.34;5055511;28;20049;-86
2022/01/16 09:07:39;;;;;;;58.63;35.17;;;;;;;4.97;73.90;101039.44;5058265;28;20047;-84
2022/01/16 09:10:09;;;;;;;50.88;31.33;;;;;;;5.13;73.35;101027.44;5055300;28;20049;-83
2022/01/16 09:12:37;;;;;;;;;;;;;;;5.17;73.02;101028.56;5056610;28;20063;-85
2022/01/16 09:15:07;;;;;;;58.85;34.38;;;;;;;5.19;72.93;101031.91;5056235;28;20297;-84
2022/01/16 09:17:35;;;;;;;58.63;33.22;;;;;;;4.90;74.21;101041.59;5056920;28;20490;-84
2022/01/16 09:20:04;;;;;;;48.88;30.48;;;;;;;5.15;73.27;101040.97;5055895;28;20053;-85
2022/01/16 09:22:31;;;;;;;52.17;32.67;;;;;;;5.19;73.48;101031.91;5056057;28;20044;-85
2022/01/16 09:24:59;;;;;;;52.70;32.72;;;;;;;5.29;72.87;101037.50;5057539;28;20053;-83
2022/01/16 09:27:27;;;;;;;52.60;32.22;;;;;;;5.40;73.42;101048.63;5055552;28;20045;-83
2022/01/16 09:29:55;;;;;;;48.50;29.83;;;;;;;5.67;72.20;101043.00;5056478;28;20064;-83
2022/01/16 09:32:22;;;;;;;52.60;32.53;;;;;;;5.55;72.22;101053.41;5056364;28;20498;-84
2022/01/16 09:34:49;;;;;;;57.03;32.67;;;;;;;5.65;71.56;101051.53;5055460;28;20048;-83
2022/01/16 09:37:17;;;;;;;48.38;31.73;;;;;;;5.59;71.92;101063.66;5055204;28;20482;-83
2022/01/16 09:39:47;;;;;;;49.88;32.10;;;;;;;5.69;71.98;101069.25;5056106;28;20052;-83
2022/01/16 09:42:15;;;;;;;47.45;30.50;;;;;;;5.68;72.01;101064.00;5055554;28;20053;-84
2022/01/16 09:44:47;;;;;;;53.58;33.28;;;;;;;5.55;72.35;101061.69;5056142;28;20053;-83
2022/01/16 09:47:15;;;;;;;51.05;31.52;;;;;;;5.83;71.08;101058.53;5056788;28;20045;-84
2022/01/16 09:49:42;;;;;;;48.58;30.17;;;;;;;5.84;71.09;101059.41;5058334;28;20049;-83
2022/01/16 09:52:10;;;;;;;50.80;30.05;;;;;;;5.89;70.95;101056.63;5056833;28;20395;-84
2022/01/16 09:54:38;;;;;;;54.30;33.10;;;;;;;5.80;70.58;101055.50;5056847;28;20045;-84
2022/01/16 09:57:06;;;;;;;54.10;32.40;;;;;;;5.78;71.07;101054.94;5056341;28;20060;-85
2022/01/16 09:59:36;;;;;;;45.33;28.75;;;;;;;6.14;70.00;101061.50;5048028;28;20049;-83
2022/01/16 10:02:06;;;;;;;44.28;27.65;;;;;;;5.87;70.30;101056.06;5050631;28;20049;-85
2022/01/16 10:04:36;;;;;;;45.53;28.67;;;;;;;5.70;70.64;101070.09;5059881;28;20053;-84
2022/01/16 10:07:06;;;;;;;45.22;27.90;;;;;;;6.06;70.20;101065.59;5059980;28;20059;-84
2022/01/16 10:09:35;;;;;;;47.22;29.35;;;;;;;5.98;69.76;101070.81;5061120;28;20124;-84
2022/01/16 10:12:13;;;;;;;50.67;30.70;;;;;;;5.92;70.25;101077.38;5058689;28;20056;-82
2022/01/16 10:14:47;;;;;;;41.17;27.42;;;;;;;6.41;68.60;101072.38;5056305;28;20057;-83
2022/01/16 10:17:17;;;;;;;43.95;28.60;;;;;;;6.45;68.70;101069.91;5055841;28;20506;-82
2022/01/16 10:19:45;;;;;;;41.03;26.10;;;;;;;6.59;67.75;101075.75;5060791;28;20501;-83
2022/01/16 10:22:17;;;;;;;40.22;26.98;;;;;;;6.56;67.69;101056.94;5058672;28;20044;-83
2022/01/16 10:24:45;;;;;;;39.63;25.92;;;;;;;6.68;67.06;101061.09;5059463;28;20056;-82
2022/01/16 10:27:18;;;;;;;40.53;25.70;;;;;;;6.61;68.09;101068.00;5059337;28;20049;-82
2022/01/16 10:29:48;;;;;;;37.20;24.63;;;;;;;6.81;66.88;101067.22;5058692;28;20061;-84
2022/01/16 10:32:19;;;;;;;;;;;;;;;6.69;66.30;101073.00;5060008;28;20053;-85
2022/01/16 10:34:51;;;;;;;40.85;24.08;;;;;;;6.83;66.03;101065.00;5059978;28;19921;-85
2022/01/16 10:37:26;;;;;;;35.40;22.85;;;;;;;6.85;66.26;101066.41;5060866;28;20060;-85
2022/01/16 10:39:58;;;;;;;37.97;24.70;;;;;;;6.78;66.41;101057.50;5059174;28;20049;-85
2022/01/16 10:42:28;;;;;;;36.03;24.13;;;;;;;6.60;67.17;101066.34;5060872;28;20053;-85
2022/01/16 10:44:57;;;;;;;34.30;23.65;;;;;;;6.64;65.90;101050.84;5060969;28;20059;-85
2022/01/16 10:47:30;;;;;;;36.17;25.27;;;;;;;6.88;65.45;101054.75;5059970;28;20049;-85
2022/01/16 10:50:10;;;;;;;35.70;23.33;;;;;;;6.85;65.33;101052.53;5060906;28;20053;-86
2022/01/16 10:52:59;;;;;;;33.72;24.27;;;;;;;6.87;65.73;101072.50;5054837;28;20053;-84
2022/01/16 10:55:36;;;;;;;39.05;25.98;;;;;;;6.76;65.71;101058.88;5062152;28;20049;-83
2022/01/16 10:58:06;;;;;;;40.22;25.85;;;;;;;6.75;66.35;101065.56;5059883;28;20049;-84
2022/01/16 11:00:34;;;;;;;36.58;24.77;;;;;;;6.55;65.99;101075.47;5059943;28;20409;-83
2022/01/16 11:03:06;;;;;;;37.53;23.88;;;;;;;6.89;65.27;101077.75;5052637;28;20057;-84
2022/01/16 11:05:36;;;;;;;33.70;22.35;;;;;;;6.94;64.76;101083.28;5057761;28;20130;-85
2022/01/16 11:08:04;;;;;;;;;;;;;;;6.91;65.29;101081.09;5055100;28;20049;-85
2022/01/16 11:10:33;;;;;;;38.25;24.27;;;;;;;6.85;65.89;101090.50;5056338;28;19921;-83
2022/01/16 11:13:02;;;;;;;35.70;23.00;;;;;;;6.97;64.91;101084.66;5055887;28;20049;-83
2022/01/16 11:15:34;;;;;;;32.95;22.77;;;;;;;6.95;65.48;101082.19;5054246;28;20052;-85
2022/01/16 11:18:04;;;;;;;32.10;23.98;;;;;;;7.09;65.01;101082.47;5059424;28;20410;-84
2022/01/16 11:20:36;;;;;;;33.72;22.23;;;;;;;7.14;64.55;101076.94;5058224;28;20048;-84
2022/01/16 11:23:12;;;;;;;32.47;21.60;;;;;;;7.03;64.77;101070.53;5059037;28;20045;-84
2022/01/16 11:25:41;;;;;;;31.83;21.05;;;;;;;7.14;64.52;101076.94;5058378;28;20769;-84
2022/01/16 11:28:11;;;;;;;31.48;20.80;;;;;;;7.14;64.71;101067.78;5058342;28;20060;-84
2022/01/16 11:30:42;;;;;;;27.77;20.35;;;;;;;7.21;64.53;101080.25;5076131;28;20060;-84
2022/01/16 11:33:11;;;;;;;33.75;21.27;;;;;;;7.20;63.80;101078.63;5078799;28;20053;-84
2022/01/16 11:35:45;;;;;;;31.80;21.45;;;;;;;7.20;63.80;101084.16;5078723;28;20052;-85
2022/01/16 11:38:13;;;;;;;33.80;22.90;;;;;;;7.24;63.85;101079.69;5078686;28;20056;-84
2022/01/16 11:40:51;;;;;;;28.95;20.67;;;;;;;7.38;63.63;101088.28;5078948;28;20060;-83
2022/01/16 11:43:23;;;;;;;30.05;20.45;;;;;;;7.67;63.19;101084.94;5075957;28;20048;-84
2022/01/16 11:45:54;;;;;;;32.63;21.40;;;;;;;7.47;63.25;101092.16;5058574;28;20433;-84
2022/01/16 11:48:38;;;;;;;30.42;20.27;;;;;;;7.58;63.63;101093.00;5059766;28;20060;-83
2022/01/16 11:51:08;;;;;;;29.92;20.30;;;;;;;7.44;63.29;101089.13;5078777;28;20052;-83
2022/01/16 11:54:06;;;;;;;34.60;21.38;;;;;;;7.46;63.37;101087.75;5078159;28;20049;-84
2022/01/16 11:56:52;;;;;;;33.28;21.58;;;;;;;7.53;63.08;101090.22;5078742;28;20513;-85
2022/01/16 11:59:21;;;;;;;30.92;21.02;;;;;;;7.34;64.23;101086.38;5077938;28;20478;-84
2022/01/16 12:01:51;;;;;;;30.63;19.48;;;;;;;7.48;64.15;101093.00;5079009;28;20052;-84
2022/01/16 12:04:53;;;;;;;34.72;22.40;;;;;;;7.19;64.44;101095.50;5079238;28;20442;-83
2022/01/16 12:07:48;;;;;;;32.25;21.10;;;;;;;7.52;64.83;101083.03;5077966;28;20059;-84